Time;durP1;ratioP1;P1;durP2;ratioP2;P2;SDS_P1;SDS_P2;PMS_P1;PMS_P2;Temp;Humidity;BMP_temperature;BMP_pressure;BME280_temperature;BME280_humidity;BME280_pressure;Samples;Min_cycle;Max_cycle;Signal;HPM_P1;HPM_P2
2023/08/20 00:02:27;;;;;;;6.55;2.58;;;;;;;17.63;78.65;102144.06;7404938;19;20371;-77
2023/08/20 00:05:00;;;;;;;9.63;3.40;;;;;;;17.59;78.86;102142.78;7402483;19;19928;-77
2023/08/20 00:07:31;;;;;;;8.40;3.00;;;;;;;17.56;79.41;102143.09;7405045;19;19915;-78
2023/08/20 00:10:02;;;;;;;12.00;3.80;;;;;;;17.53;79.12;102143.50;7404778;19;19950;-77
2023/08/20 00:12:30;;;;;;;6.63;2.92;;;;;;;17.49;79.12;102138.63;7404741;19;19946;-77
2023/08/20 00:15:04;;;;;;;6.75;2.63;;;;;;;17.47;79.43;102143.44;7404897;19;20352;-78
2023/08/20 00:17:34;;;;;;;6.65;2.28;;;;;;;17.45;79.54;102145.47;7404524;19;20185;-77
2023/08/20 00:20:09;;;;;;;9.27;2.35;;;;;;;17.43;79.69;102144.84;7405174;19;20390;-78
2023/08/20 00:22:41;;;;;;;10.60;2.95;;;;;;;17.40;79.47;102137.03;7404671;19;20280;-77
2023/08/20 00:25:12;;;;;;;5.53;2.25;;;;;;;17.34;79.75;102148.72;7402784;19;20268;-77
2023/08/20 00:27:41;;;;;;;6.80;2.47;;;;;;;17.30;79.51;102144.69;7404302;19;20289;-78
2023/08/20 00:30:11;;;;;;;8.23;2.40;;;;;;;17.28;79.24;102139.41;7404419;19;19922;-78
2023/08/20 00:32:41;;;;;;;5.28;2.63;;;;;;;17.21;79.75;102150.19;7404530;19;19927;-77
2023/08/20 00:35:10;;;;;;;4.88;2.55;;;;;;;17.14;80.01;102154.72;7404472;19;19910;-77
2023/08/20 00:37:41;;;;;;;6.20;2.55;;;;;;;17.11;79.81;102162.44;7403809;19;19926;-78
2023/08/20 00:40:11;;;;;;;6.57;2.70;;;;;;;17.10;79.68;102155.28;7404920;19;19911;-78
2023/08/20 00:42:40;;;;;;;6.28;2.67;;;;;;;17.08;80.10;102160.94;7408592;19;19938;-76
2023/08/20 00:45:10;;;;;;;5.35;2.65;;;;;;;17.05;80.03;102161.28;7403135;19;19922;-77
2023/08/20 00:47:39;;;;;;;6.25;2.55;;;;;;;17.03;79.88;102167.97;7405251;19;19923;-77
2023/08/20 00:50:10;;;;;;;6.63;2.65;;;;;;;17.02;80.23;102156.25;7406920;19;19918;-77
2023/08/20 00:52:41;;;;;;;7.15;2.65;;;;;;;16.98;80.14;102170.41;7406131;19;19926;-77
2023/08/20 00:55:12;;;;;;;8.02;2.97;;;;;;;16.97;80.11;102176.88;7405126;19;19922;-77
2023/08/20 00:57:42;;;;;;;6.10;2.92;;;;;;;16.96;80.24;102183.34;7404550;19;19931;-77
2023/08/20 01:00:12;;;;;;;3.85;2.70;;;;;;;16.94;80.61;102171.81;7403671;19;19942;-77
2023/08/20 01:02:42;;;;;;;6.28;2.78;;;;;;;16.92;80.62;102174.72;7404415;19;19931;-77
2023/08/20 01:05:13;;;;;;;9.90;2.72;;;;;;;16.91;80.79;102169.47;7402724;19;19919;-77
2023/08/20 01:08:08;;;;;;;5.70;2.78;;;;;;;16.79;81.86;102177.25;7406019;19;19938;-78
2023/08/20 01:10:51;;;;;;;6.40;2.80;;;;;;;16.81;81.63;102177.91;7403820;19;19947;-77
2023/08/20 01:13:19;;;;;;;6.90;2.70;;;;;;;16.87;81.00;102176.34;7404918;19;19919;-77
2023/08/20 01:15:49;;;;;;;9.07;3.03;;;;;;;16.87;81.25;102179.88;7404276;19;19922;-77
2023/08/20 01:18:17;;;;;;;10.15;3.15;;;;;;;16.87;81.02;102185.31;7404454;19;20344;-77
2023/08/20 01:20:53;;;;;;;6.18;2.55;;;;;;;16.87;81.16;102184.50;7404208;19;19939;-77
2023/08/20 01:23:46;;;;;;;6.07;2.70;;;;;;;16.76;82.02;102183.91;7404104;19;19931;-78
2023/08/20 01:26:28;;;;;;;3.72;2.47;;;;;;;16.76;81.81;102185.78;7404550;19;20340;-78
2023/08/20 01:28:59;;;;;;;7.32;2.55;;;;;;;16.81;81.60;102186.06;7404270;19;19915;-77
2023/08/20 01:31:29;;;;;;;7.72;2.60;;;;;;;16.85;81.53;102181.09;7404200;19;19919;-78
2023/08/20 01:33:58;;;;;;;6.97;2.80;;;;;;;16.87;81.17;102185.31;7403801;19;19935;-78
2023/08/20 01:36:27;;;;;;;8.40;2.88;;;;;;;16.87;81.13;102190.75;7403240;19;20272;-77
2023/08/20 01:38:55;;;;;;;8.32;2.42;;;;;;;16.88;81.60;102195.19;7403632;19;19938;-78
2023/08/20 01:41:24;;;;;;;9.55;2.70;;;;;;;16.87;81.03;102195.38;7404309;19;19922;-78
2023/08/20 01:43:53;;;;;;;5.50;2.65;;;;;;;16.85;81.00;102203.72;7403058;19;19917;-77
2023/08/20 01:46:24;;;;;;;5.72;2.88;;;;;;;16.82;81.19;102201.38;7403173;19;19919;-78
2023/08/20 01:48:53;;;;;;;7.25;2.72;;;;;;;16.80;81.50;102206.16;7403595;19;19911;-79
2023/08/20 01:51:21;;;;;;;10.57;3.10;;;;;;;16.79;81.68;102208.03;7403140;19;19942;-78
2023/08/20 01:53:50;;;;;;;9.13;3.03;;;;;;;16.80;81.72;102211.59;7402820;19;20278;-77
2023/08/20 01:56:18;;;;;;;9.52;2.67;;;;;;;16.81;81.96;102213.28;7399085;19;19911;-77
2023/08/20 01:58:47;;;;;;;6.50;2.50;;;;;;;16.82;81.78;102211.44;7402333;19;19918;-77
2023/08/20 02:01:15;;;;;;;4.80;2.53;;;;;;;16.81;81.65;102216.03;7402360;19;20014;-77
2023/08/20 02:03:47;;;;;;;5.13;2.38;;;;;;;16.83;81.64;102218.56;7402519;19;20128;-77
2023/08/20 02:06:15;;;;;;;6.93;2.30;;;;;;;16.83;81.71;102221.28;7403145;19;19918;-77
2023/08/20 02:08:44;;;;;;;4.85;2.78;;;;;;;16.83;81.72;102219.38;7404295;19;20654;-77
2023/08/20 02:11:12;;;;;;;8.35;2.75;;;;;;;16.82;82.06;102220.44;7403642;19;19915;-77
2023/08/20 02:13:41;;;;;;;7.07;2.72;;;;;;;16.79;81.51;102215.34;7402535;19;19918;-77
2023/08/20 02:16:11;;;;;;;5.45;2.70;;;;;;;16.77;81.55;102214.69;7402120;19;19934;-76
2023/08/20 02:18:39;;;;;;;7.20;2.72;;;;;;;16.74;81.85;102215.91;7401940;19;19923;-78
2023/08/20 02:21:10;;;;;;;5.72;2.58;;;;;;;16.73;82.15;102219.66;7401481;19;19942;-77
2023/08/20 02:23:39;;;;;;;5.72;2.55;;;;;;;16.72;81.61;102219.84;7402640;19;19995;-77
2023/08/20 02:26:08;;;;;;;7.38;2.60;;;;;;;16.68;82.35;102215.81;7401458;19;19914;-77
2023/08/20 02:28:37;;;;;;;6.78;2.83;;;;;;;16.66;82.46;102218.69;7402059;19;19914;-77
2023/08/20 02:31:07;;;;;;;8.90;2.90;;;;;;;16.65;82.91;102227.88;7401660;19;20318;-77
2023/08/20 02:33:36;;;;;;;12.05;3.47;;;;;;;16.64;82.85;102234.38;7401439;19;19919;-78
2023/08/20 02:36:05;;;;;;;8.02;3.70;;;;;;;16.64;82.83;102226.22;7401605;19;20056;-77
2023/08/20 02:38:36;;;;;;;9.55;3.22;;;;;;;16.64;83.05;102228.09;7402950;19;19931;-77
2023/08/20 02:41:05;;;;;;;5.90;3.03;;;;;;;16.63;82.88;102227.25;7402742;19;19918;-77
2023/08/20 02:43:34;;;;;;;9.82;3.22;;;;;;;16.63;83.16;102223.66;7401433;19;19915;-77
2023/08/20 02:46:02;;;;;;;6.60;3.30;;;;;;;16.61;82.77;102229.28;7399999;19;19922;-77
2023/08/20 02:48:31;;;;;;;13.65;3.05;;;;;;;16.60;83.15;102232.22;7401161;19;19955;-77
2023/08/20 02:51:00;;;;;;;6.85;2.88;;;;;;;16.59;83.00;102230.50;7401071;19;19918;-78
2023/08/20 02:53:29;;;;;;;7.10;3.10;;;;;;;16.58;82.97;102226.94;7401828;19;19923;-77
2023/08/20 02:56:00;;;;;;;7.55;2.90;;;;;;;16.57;82.94;102216.19;7401089;19;19951;-77
2023/08/20 02:58:28;;;;;;;9.25;3.17;;;;;;;16.53;82.76;102213.00;7399970;19;20268;-77
2023/08/20 03:00:57;;;;;;;5.38;3.22;;;;;;;16.51;82.98;102206.06;7399868;19;20272;-77
2023/08/20 03:03:26;;;;;;;6.35;2.75;;;;;;;16.49;83.01;102200.78;7399668;19;19921;-78
2023/08/20 03:05:54;;;;;;;9.63;3.47;;;;;;;16.45;83.48;102204.91;7398262;19;20446;-78
2023/08/20 03:08:23;;;;;;;6.30;2.53;;;;;;;16.43;83.41;102195.25;7406004;19;19915;-77
2023/08/20 03:10:51;;;;;;;8.95;3.40;;;;;;;16.41;83.61;102181.81;7406438;19;19911;-77
2023/08/20 03:13:23;;;;;;;12.40;3.88;;;;;;;16.39;83.29;102183.06;7405790;19;19914;-77
2023/08/20 03:15:51;;;;;;;9.50;3.20;;;;;;;16.30;83.50;102168.69;7406161;19;19919;-77
2023/08/20 03:18:21;;;;;;;8.43;2.90;;;;;;;16.24;83.69;102166.69;7405566;19;19946;-77
2023/08/20 03:20:49;;;;;;;5.53;2.33;;;;;;;16.20;83.34;102163.47;7405992;19;19934;-78
2023/08/20 03:23:18;;;;;;;5.60;3.53;;;;;;;16.15;83.54;102173.22;7405643;19;19930;-78
2023/08/20 03:25:46;;;;;;;11.07;3.63;;;;;;;16.10;83.65;102173.75;7403705;19;19923;-78
2023/08/20 03:28:15;;;;;;;7.05;2.92;;;;;;;16.07;83.68;102176.84;7405469;19;19919;-77
2023/08/20 03:30:47;;;;;;;6.22;3.42;;;;;;;16.02;83.81;102176.53;7405737;19;19926;-78
2023/08/20 03:33:16;;;;;;;4.43;2.90;;;;;;;15.97;83.63;102176.22;7405060;19;19925;-77
2023/08/20 03:35:45;;;;;;;8.88;3.58;;;;;;;15.96;83.80;102179.13;7404870;19;20679;-77
2023/08/20 03:38:14;;;;;;;10.93;4.43;;;;;;;15.94;83.49;102183.91;7402262;19;19949;-77
2023/08/20 03:40:42;;;;;;;6.22;3.58;;;;;;;15.89;83.81;102184.44;7404510;19;19931;-77
2023/08/20 03:43:13;;;;;;;8.18;4.28;;;;;;;15.87;84.10;102191.94;7405098;19;19949;-77
2023/08/20 03:45:44;;;;;;;10.48;4.20;;;;;;;15.82;84.30;102186.19;7403312;19;19941;-78
2023/08/20 03:48:15;;;;;;;11.00;4.60;;;;;;;15.79;84.35;102189.28;7405153;19;19907;-77
2023/08/20 03:50:44;;;;;;;8.73;4.15;;;;;;;15.79;84.44;102189.28;7406012;19;19915;-78
2023/08/20 03:53:12;;;;;;;9.48;4.75;;;;;;;15.80;84.61;102191.78;7404835;19;19978;-77
2023/08/20 03:55:41;;;;;;;6.88;3.50;;;;;;;15.79;84.35;102183.84;7405187;19;19927;-78
2023/08/20 03:58:10;;;;;;;8.75;4.32;;;;;;;15.76;84.67;102193.19;7406313;19;20340;-77
2023/08/20 04:00:38;;;;;;;5.78;3.67;;;;;;;15.74;84.65;102197.09;7407582;19;19934;-77
2023/08/20 04:03:09;;;;;;;10.35;4.10;;;;;;;15.73;84.62;102195.41;7411496;19;19921;-77
2023/08/20 04:05:41;;;;;;;9.10;4.53;;;;;;;15.71;84.72;102203.72;7411219;19;19942;-77
2023/08/20 04:08:10;;;;;;;9.23;4.10;;;;;;;15.72;84.74;102199.16;7407601;19;19919;-79
2023/08/20 04:10:47;;;;;;;8.35;4.13;;;;;;;15.72;84.62;102191.00;7404063;19;20528;-79
2023/08/20 04:13:16;;;;;;;7.30;4.40;;;;;;;15.73;84.86;102189.97;7403961;19;19946;-77
2023/08/20 04:15:45;;;;;;;8.55;4.68;;;;;;;15.73;84.71;102189.97;7403935;19;19914;-77
2023/08/20 04:18:13;;;;;;;7.35;3.70;;;;;;;15.71;84.84;102198.28;7401584;19;20344;-77
2023/08/20 04:20:45;;;;;;;6.85;4.57;;;;;;;15.70;84.50;102196.63;7404190;19;19923;-77
2023/08/20 04:23:14;;;;;;;8.73;4.72;;;;;;;15.71;85.00;102211.88;7403712;19;19950;-78
2023/08/20 04:25:42;;;;;;;9.95;4.22;;;;;;;15.71;84.89;102219.19;7402076;19;20278;-77
2023/08/20 04:28:11;;;;;;;11.45;3.80;;;;;;;15.70;84.74;102223.78;7403621;19;19925;-78
2023/08/20 04:30:40;;;;;;;13.13;4.90;;;;;;;15.69;85.47;102216.66;7403293;19;19935;-78
2023/08/20 04:33:08;;;;;;;9.68;4.25;;;;;;;15.68;85.27;102216.81;7403692;19;20270;-78
2023/08/20 04:35:37;;;;;;;8.27;4.63;;;;;;;15.67;85.66;102215.13;7404025;19;19937;-78
2023/08/20 04:38:09;;;;;;;9.23;4.65;;;;;;;15.64;85.41;102216.34;7401725;19;20367;-78
2023/08/20 04:40:38;;;;;;;11.32;4.45;;;;;;;15.65;85.55;102228.06;7403799;19;19974;-77
2023/08/20 04:43:07;;;;;;;9.77;4.38;;;;;;;15.65;85.85;102225.34;7403483;19;20339;-78
2023/08/20 04:45:35;;;;;;;5.90;4.10;;;;;;;15.65;85.51;102228.91;7402279;19;19925;-77
2023/08/20 04:48:04;;;;;;;8.45;4.60;;;;;;;15.66;85.19;102232.47;7403070;19;19934;-77
2023/08/20 04:50:33;;;;;;;8.43;4.35;;;;;;;15.66;85.68;102244.16;7403351;19;20624;-78
2023/08/20 04:53:01;;;;;;;10.32;5.45;;;;;;;15.66;85.52;102232.47;7403079;19;19937;-78
2023/08/20 04:55:32;;;;;;;10.27;4.88;;;;;;;15.65;86.11;102239.78;7402610;19;19947;-77
2023/08/20 04:58:01;;;;;;;8.73;4.88;;;;;;;15.66;85.80;102236.00;7402605;19;19926;-77
2023/08/20 05:00:30;;;;;;;10.18;4.60;;;;;;;15.66;85.83;102241.44;7402402;19;19918;-77
2023/08/20 05:02:58;;;;;;;8.23;5.10;;;;;;;15.66;85.88;102243.34;7402373;19;19935;-78
2023/08/20 05:05:27;;;;;;;9.65;4.85;;;;;;;15.67;86.09;102240.44;7402050;19;19922;-77
2023/08/20 05:07:56;;;;;;;10.32;5.88;;;;;;;15.68;85.93;102246.72;7402205;19;20273;-77
2023/08/20 05:10:24;;;;;;;9.55;5.50;;;;;;;15.70;85.85;102259.13;7403079;19;19927;-78
2023/08/20 05:12:55;;;;;;;9.13;5.78;;;;;;;15.73;86.02;102253.31;7402175;19;19918;-77
2023/08/20 05:15:24;;;;;;;8.60;5.13;;;;;;;15.76;86.05;102246.66;7402288;19;20257;-78
2023/08/20 05:17:53;;;;;;;9.80;4.97;;;;;;;15.79;86.02;102249.88;7402089;19;19937;-77
2023/08/20 05:20:21;;;;;;;10.88;5.20;;;;;;;15.82;85.83;102254.13;7401957;19;19923;-78
2023/08/20 05:22:50;;;;;;;9.75;5.38;;;;;;;15.85;85.93;102251.03;7401940;19;19922;-77
2023/08/20 05:25:19;;;;;;;11.00;5.53;;;;;;;15.89;85.91;102255.09;7401507;19;19919;-78
2023/08/20 05:27:48;;;;;;;10.93;4.80;;;;;;;15.93;85.68;102259.16;7401577;19;19919;-77
2023/08/20 05:30:19;;;;;;;9.90;4.30;;;;;;;15.97;85.65;102255.03;7401237;19;19918;-77
2023/08/20 05:32:48;;;;;;;8.85;4.47;;;;;;;16.00;85.49;102256.56;7401776;19;19923;-78
2023/08/20 05:35:17;;;;;;;10.02;4.97;;;;;;;16.03;85.43;102262.50;7401740;19;20233;-77
2023/08/20 05:37:45;;;;;;;10.77;5.63;;;;;;;16.08;85.22;102262.81;7400488;19;20016;-77
2023/08/20 05:40:14;;;;;;;9.95;4.40;;;;;;;16.12;85.30;102272.31;7401647;19;19919;-78
2023/08/20 05:42:43;;;;;;;14.52;5.38;;;;;;;16.15;85.53;102266.50;7401435;19;19938;-77
2023/08/20 05:45:12;;;;;;;10.32;4.80;;;;;;;16.19;85.36;102273.25;7400883;19;19923;-77
2023/08/20 05:47:44;;;;;;;9.05;4.85;;;;;;;16.23;85.17;102265.59;7401375;19;20288;-78
2023/08/20 05:50:12;;;;;;;9.68;4.30;;;;;;;16.28;85.29;102265.91;7401467;19;19986;-78
2023/08/20 05:52:41;;;;;;;15.35;4.40;;;;;;;16.34;85.05;102265.19;7401064;19;19935;-78
2023/08/20 05:55:11;;;;;;;11.00;4.55;;;;;;;16.41;85.42;102270.75;7401351;19;20267;-78
2023/08/20 05:57:40;;;;;;;8.65;4.30;;;;;;;16.47;84.90;102265.44;7401387;19;20395;-77
2023/08/20 06:00:15;;;;;;;10.75;4.63;;;;;;;16.55;84.98;102265.38;7400356;19;20019;-77
2023/08/20 06:02:46;;;;;;;8.18;4.53;;;;;;;16.61;85.43;102267.38;7401104;19;20241;-77
2023/08/20 06:05:15;;;;;;;8.20;4.85;;;;;;;16.67;84.92;102265.81;7400812;19;20450;-78
2023/08/20 06:07:44;;;;;;;5.93;4.40;;;;;;;16.73;84.95;102276.81;7401005;19;20361;-77
2023/08/20 06:10:13;;;;;;;8.82;4.78;;;;;;;16.81;84.40;102286.78;7401129;19;19919;-77
2023/08/20 06:12:42;;;;;;;9.18;4.75;;;;;;;16.87;84.66;102277.88;7401064;19;19922;-78
2023/08/20 06:15:11;;;;;;;9.32;4.47;;;;;;;16.93;84.62;102279.00;7400559;19;19923;-77
2023/08/20 06:17:40;;;;;;;15.30;4.90;;;;;;;16.98;84.54;102276.59;7400623;19;19911;-78
2023/08/20 06:20:13;;;;;;;10.98;5.05;;;;;;;17.04;84.74;102282.13;7400572;19;19948;-78
2023/08/20 06:22:41;;;;;;;8.57;4.93;;;;;;;17.11;84.47;102276.81;7400363;19;20356;-77
2023/08/20 06:25:11;;;;;;;10.65;4.65;;;;;;;17.17;83.66;102287.78;7399691;19;19929;-78
2023/08/20 06:27:46;;;;;;;;;;;;;;;17.07;84.90;102281.78;7403110;19;19935;-77
2023/08/20 06:30:15;;;;;;;11.90;5.00;;;;;;;17.26;83.75;102276.84;7400366;19;20341;-78
2023/08/20 06:32:44;;;;;;;11.23;5.10;;;;;;;17.32;84.01;102281.50;7400324;19;19914;-78
2023/08/20 06:35:16;;;;;;;10.15;5.47;;;;;;;17.39;83.33;102280.56;7400226;19;19942;-78
2023/08/20 06:37:45;;;;;;;8.13;4.68;;;;;;;17.44;83.47;102275.41;7398888;19;19922;-78
2023/08/20 06:40:15;;;;;;;11.55;5.07;;;;;;;17.48;83.12;102279.44;7400991;19;19911;-78
2023/08/20 06:42:43;;;;;;;8.85;4.53;;;;;;;17.53;82.96;102267.97;7398272;19;20347;-79
2023/08/20 06:45:12;;;;;;;8.43;4.35;;;;;;;17.56;82.46;102263.00;7399545;19;20316;-77
2023/08/20 06:47:41;;;;;;;11.68;4.78;;;;;;;17.62;83.14;102266.88;7399622;19;19918;-78
2023/08/20 06:50:11;;;;;;;10.73;4.97;;;;;;;17.67;83.14;102268.03;7399689;19;19914;-77
2023/08/20 06:52:43;;;;;;;11.20;4.18;;;;;;;17.72;82.56;102278.34;7400105;19;19918;-78
2023/08/20 06:55:12;;;;;;;6.90;3.80;;;;;;;17.78;82.64;102277.56;7400022;19;19918;-78
2023/08/20 06:57:40;;;;;;;6.22;4.05;;;;;;;17.82;82.52;102278.88;7399350;19;19925;-77
2023/08/20 07:00:10;;;;;;;9.18;4.05;;;;;;;17.89;81.82;102282.56;7399614;19;19942;-77
2023/08/20 07:02:39;;;;;;;9.20;4.22;;;;;;;17.93;81.85;102283.03;7399641;19;19923;-78
2023/08/20 07:05:09;;;;;;;7.25;4.43;;;;;;;17.97;81.09;102285.16;7399849;19;20259;-77
2023/08/20 07:07:37;;;;;;;8.90;4.53;;;;;;;18.01;81.31;102293.81;7397943;19;19914;-76
2023/08/20 07:10:10;;;;;;;8.73;4.22;;;;;;;18.05;81.05;102292.38;7400290;19;20316;-76
2023/08/20 07:12:39;;;;;;;10.68;4.50;;;;;;;18.10;81.12;102292.66;7401537;19;20348;-77
2023/08/20 07:15:09;;;;;;;16.25;4.95;;;;;;;18.15;81.40;102292.94;7405394;19;20321;-76
2023/08/20 07:17:38;;;;;;;8.98;4.32;;;;;;;18.21;81.60;102299.53;7404011;19;19915;-77
2023/08/20 07:20:11;;;;;;;11.07;4.55;;;;;;;18.28;80.91;102287.63;7400331;19;19918;-76
2023/08/20 07:22:39;;;;;;;8.85;4.43;;;;;;;18.34;80.94;102292.31;7398892;19;19942;-78
2023/08/20 07:25:11;;;;;;;9.25;3.75;;;;;;;18.40;81.28;102293.41;7398317;19;19946;-76
2023/08/20 07:27:43;;;;;;;10.45;3.92;;;;;;;18.46;80.58;102288.03;7396466;19;20324;-76
2023/08/20 07:30:12;;;;;;;9.63;4.20;;;;;;;18.52;80.50;102291.84;7399711;19;19922;-77
2023/08/20 07:32:41;;;;;;;11.13;4.07;;;;;;;18.56;80.58;102294.03;7399911;19;19918;-77
2023/08/20 07:35:10;;;;;;;10.60;3.80;;;;;;;18.65;79.87;102302.09;7399505;19;19990;-77
2023/08/20 07:37:39;;;;;;;7.65;3.38;;;;;;;18.70;79.83;102308.66;7397623;19;19946;-76
2023/08/20 07:40:12;;;;;;;7.60;3.42;;;;;;;18.77;79.57;102301.38;7399125;19;19910;-76
2023/08/20 07:42:44;;;;;;;10.82;4.10;;;;;;;18.82;79.84;102307.09;7397870;19;20261;-76
2023/08/20 07:45:13;;;;;;;8.98;3.20;;;;;;;18.86;79.18;102300.19;7398085;19;19953;-77
2023/08/20 07:47:42;;;;;;;7.72;2.97;;;;;;;18.92;79.20;102293.97;7395709;19;20348;-77
2023/08/20 07:50:11;;;;;;;11.23;2.97;;;;;;;18.99;79.04;102297.56;7397456;19;19935;-77
2023/08/20 07:52:40;;;;;;;7.57;3.08;;;;;;;19.08;78.81;102294.69;7398577;19;19925;-76
2023/08/20 07:55:11;;;;;;;8.27;2.92;;;;;;;19.16;79.44;102295.38;7404498;19;19915;-75
2023/08/20 07:57:40;;;;;;;12.02;2.90;;;;;;;19.23;78.33;102295.47;7406041;19;20498;-76
2023/08/20 08:00:10;;;;;;;9.73;2.65;;;;;;;19.29;78.18;102306.41;7403830;19;19942;-76
2023/08/20 08:02:39;;;;;;;9.57;2.47;;;;;;;19.34;77.82;102300.34;7404025;19;20425;-77
2023/08/20 08:05:09;;;;;;;9.18;2.90;;;;;;;19.38;78.07;102291.56;7403750;19;19922;-76
2023/08/20 08:07:38;;;;;;;13.65;2.83;;;;;;;19.43;78.00;102302.78;7402806;19;20284;-76
2023/08/20 08:10:07;;;;;;;8.65;2.20;;;;;;;19.52;77.71;102302.59;7403889;19;19907;-76
2023/08/20 08:12:38;;;;;;;7.30;2.53;;;;;;;19.55;77.40;102296.72;7403721;19;19938;-76
2023/08/20 08:15:08;;;;;;;5.75;1.92;;;;;;;19.57;77.40;102298.22;7403862;19;20280;-76
2023/08/20 08:17:37;;;;;;;8.07;2.20;;;;;;;19.63;77.04;102302.88;7403343;19;20299;-77
2023/08/20 08:20:06;;;;;;;11.88;2.53;;;;;;;19.71;77.00;102293.69;7403852;19;19926;-77
2023/08/20 08:22:34;;;;;;;8.05;2.13;;;;;;;19.78;76.92;102314.53;7403290;19;19923;-76
2023/08/20 08:25:03;;;;;;;8.55;1.55;;;;;;;19.83;76.32;102303.84;7403581;19;20329;-77
2023/08/20 08:27:31;;;;;;;7.00;1.98;;;;;;;19.88;76.11;102295.88;7401653;19;19915;-77
2023/08/20 08:30:03;;;;;;;8.57;1.60;;;;;;;19.94;75.75;102299.66;7403750;19;20346;-77
2023/08/20 08:32:32;;;;;;;8.02;1.90;;;;;;;20.00;75.17;102300.75;7404084;19;20284;-76
2023/08/20 08:35:00;;;;;;;8.07;1.77;;;;;;;20.05;74.76;102301.00;7403602;19;20348;-77
2023/08/20 08:37:29;;;;;;;6.53;1.95;;;;;;;20.10;74.19;102298.50;7401944;19;19918;-76
2023/08/20 08:39:57;;;;;;;9.02;1.80;;;;;;;20.11;74.82;102295.53;7404367;19;19946;-76
2023/08/20 08:42:27;;;;;;;6.65;1.85;;;;;;;20.17;74.75;102297.44;7402823;19;19923;-76
2023/08/20 08:44:55;;;;;;;6.70;1.25;;;;;;;20.26;72.31;102300.84;7402883;19;19907;-76
2023/08/20 08:47:28;;;;;;;4.03;1.40;;;;;;;20.33;72.03;102302.56;7401213;19;19922;-76
2023/08/20 08:49:58;;;;;;;6.72;1.30;;;;;;;20.43;72.59;102310.41;7402898;19;19923;-76
2023/08/20 08:52:28;;;;;;;4.88;1.48;;;;;;;20.50;71.97;102305.78;7403067;19;19990;-76
2023/08/20 08:54:57;;;;;;;7.15;1.50;;;;;;;20.59;71.40;102315.47;7402404;19;20260;-77
2023/08/20 08:57:26;;;;;;;8.52;1.50;;;;;;;20.65;71.37;102316.56;7402557;19;19938;-76
2023/08/20 08:59:54;;;;;;;10.55;2.00;;;;;;;20.70;71.10;102323.09;7403025;19;19939;-76
2023/08/20 09:02:23;;;;;;;5.60;1.52;;;;;;;20.76;70.47;102319.50;7402376;19;19942;-77
2023/08/20 09:04:55;;;;;;;4.30;1.10;;;;;;;20.85;70.03;102325.63;7400821;19;19914;-76
2023/08/20 09:07:24;;;;;;;5.75;1.23;;;;;;;20.95;70.87;102326.06;7401278;19;19914;-76
2023/08/20 09:09:52;;;;;;;6.43;1.38;;;;;;;21.05;69.72;102322.91;7402913;19;19914;-76
2023/08/20 09:12:22;;;;;;;6.07;1.35;;;;;;;21.10;68.77;102325.84;7402160;19;19938;-76
2023/08/20 09:14:54;;;;;;;7.38;1.83;;;;;;;21.17;68.91;102322.09;7402207;19;19923;-76
2023/08/20 09:17:23;;;;;;;6.80;1.42;;;;;;;21.26;68.92;102329.06;7402249;19;19922;-76
2023/08/20 09:19:57;;;;;;;4.35;1.30;;;;;;;21.31;68.00;102331.16;7402124;19;20340;-77
2023/08/20 09:22:26;;;;;;;5.90;1.27;;;;;;;21.39;67.92;102322.72;7402164;19;19923;-76
2023/08/20 09:24:56;;;;;;;7.07;1.58;;;;;;;21.46;66.82;102334.50;7402097;19;19917;-76
2023/08/20 09:27:26;;;;;;;3.85;0.93;;;;;;;21.58;66.22;102342.91;7401670;19;19919;-76
2023/08/20 09:29:57;;;;;;;4.18;1.35;;;;;;;21.67;65.06;102334.25;7402146;19;20276;-76
2023/08/20 09:32:29;;;;;;;3.80;0.90;;;;;;;21.76;65.52;102329.38;7401743;19;19926;-76
2023/08/20 09:35:00;;;;;;;3.70;0.90;;;;;;;21.81;64.29;102328.72;7401815;19;20304;-76
2023/08/20 09:37:30;;;;;;;3.80;1.00;;;;;;;21.85;65.17;102347.28;7400249;19;19938;-76
2023/08/20 09:39:58;;;;;;;6.68;1.10;;;;;;;21.90;64.94;102343.88;7403138;19;20524;-76
2023/08/20 09:42:30;;;;;;;3.08;1.27;;;;;;;21.94;64.20;102350.66;7401280;19;19919;-76
2023/08/20 09:45:00;;;;;;;3.13;1.02;;;;;;;21.99;64.22;102348.13;7401862;19;19954;-76
2023/08/20 09:47:31;;;;;;;4.15;0.80;;;;;;;22.10;64.02;102341.94;7400278;19;19914;-76
2023/08/20 09:50:05;;;;;;;5.10;0.95;;;;;;;22.16;63.26;102330.94;7401119;19;19934;-76
2023/08/20 09:52:41;;;;;;;5.45;1.00;;;;;;;22.23;62.44;102346.53;7401123;19;19982;-76
2023/08/20 09:55:12;;;;;;;6.13;1.25;;;;;;;22.33;63.39;102336.78;7400963;19;19946;-76
2023/08/20 09:57:42;;;;;;;4.10;1.35;;;;;;;22.44;63.50;102338.81;7400404;19;19915;-76
2023/08/20 10:00:13;;;;;;;7.43;1.27;;;;;;;22.53;62.62;102340.25;7401069;19;19929;-76
2023/08/20 10:02:43;;;;;;;2.70;0.82;;;;;;;22.61;61.94;102333.63;7400861;19;19974;-76
2023/08/20 10:05:15;;;;;;;6.82;1.02;;;;;;;22.69;59.78;102332.56;7400619;19;19929;-75
2023/08/20 10:07:45;;;;;;;3.30;0.80;;;;;;;22.78;59.79;102336.75;7399657;19;20041;-76
2023/08/20 10:10:14;;;;;;;2.88;0.90;;;;;;;22.82;60.34;102327.00;7401066;19;19939;-76
2023/08/20 10:12:44;;;;;;;1.65;0.80;;;;;;;22.88;60.17;102334.34;7401615;19;20305;-76
2023/08/20 10:15:15;;;;;;;4.18;0.88;;;;;;;22.91;60.64;102326.47;7401945;19;19918;-76
2023/08/20 10:17:46;;;;;;;5.50;1.10;;;;;;;22.90;60.33;102338.56;7399693;19;19925;-76
2023/08/20 10:20:18;;;;;;;5.95;0.93;;;;;;;23.00;60.22;102341.63;7403141;19;19938;-76
2023/08/20 10:22:48;;;;;;;3.38;0.90;;;;;;;22.91;60.03;102334.72;7404908;19;19922;-76
2023/08/20 10:25:46;;;;;;;3.72;1.08;;;;;;;22.98;58.50;102331.94;7403222;19;19992;-77
2023/08/20 10:28:21;;;;;;;2.25;0.80;;;;;;;23.13;59.97;102329.69;7400263;19;20304;-76
2023/08/20 10:31:09;;;;;;;6.03;0.98;;;;;;;23.22;58.73;102330.25;7400580;19;19922;-77
2023/08/20 10:33:39;;;;;;;2.75;1.15;;;;;;;23.38;58.70;102341.53;7400171;19;19922;-76
2023/08/20 10:36:18;;;;;;;5.18;1.20;;;;;;;23.47;57.24;102331.13;7399381;19;20268;-76
2023/08/20 10:38:48;;;;;;;3.50;0.68;;;;;;;23.58;57.79;102343.25;7399791;19;19932;-76
2023/08/20 10:41:18;;;;;;;4.03;1.17;;;;;;;23.63;58.02;102338.78;7402746;19;20314;-76
2023/08/20 10:43:51;;;;;;;6.00;1.45;;;;;;;23.76;58.11;102329.53;7399586;19;19922;-76
2023/08/20 10:46:21;;;;;;;4.60;0.90;;;;;;;23.69;57.03;102329.59;7400185;19;19925;-76
2023/08/20 10:48:51;;;;;;;6.07;1.20;;;;;;;23.77;57.17;102334.78;7398287;19;19922;-76
2023/08/20 10:51:28;;;;;;;2.40;0.70;;;;;;;23.79;54.85;102334.56;7399780;19;20534;-76
2023/08/20 10:54:09;;;;;;;4.38;0.93;;;;;;;23.87;54.38;102340.59;7399443;19;19914;-76
2023/08/20 10:56:42;;;;;;;1.88;0.80;;;;;;;23.93;54.49;102328.69;7399217;19;19914;-76
2023/08/20 10:59:12;;;;;;;3.38;1.00;;;;;;;24.01;55.49;102330.28;7399017;19;20347;-76
2023/08/20 11:01:41;;;;;;;2.47;1.00;;;;;;;24.07;54.51;102334.88;7399267;19;19918;-76
2023/08/20 11:04:11;;;;;;;4.70;1.00;;;;;;;24.16;55.25;102319.72;7398687;19;19914;-76
2023/08/20 11:06:43;;;;;;;3.00;1.10;;;;;;;24.21;53.93;102322.63;7398863;19;19923;-76
2023/08/20 11:09:11;;;;;;;8.35;1.33;;;;;;;24.33;55.91;102333.72;7399173;19;19932;-76
2023/08/20 11:11:40;;;;;;;3.80;0.98;;;;;;;24.46;55.34;102321.66;7398560;19;19978;-76
2023/08/20 11:14:10;;;;;;;3.15;0.90;;;;;;;24.61;55.74;102319.31;7398843;19;19911;-76
2023/08/20 11:16:39;;;;;;;6.85;1.15;;;;;;;24.70;54.88;102334.44;7398155;19;19929;-76
2023/08/20 11:19:08;;;;;;;4.30;1.13;;;;;;;24.73;54.45;102331.22;7398499;19;19924;-76
2023/08/20 11:21:37;;;;;;;7.85;1.45;;;;;;;24.83;53.63;102325.97;7398058;19;19920;-76
2023/08/20 11:24:09;;;;;;;2.53;0.85;;;;;;;24.81;52.44;102333.63;7398273;19;19918;-76
2023/08/20 11:26:39;;;;;;;4.78;0.98;;;;;;;24.92;52.53;102329.25;7398197;19;19918;-76
2023/08/20 11:29:08;;;;;;;3.22;0.80;;;;;;;24.95;52.52;102329.63;7401165;19;20276;-76
2023/08/20 11:31:39;;;;;;;2.97;0.80;;;;;;;25.06;52.22;102327.97;7404809;19;19942;-75
2023/08/20 11:34:09;;;;;;;4.55;1.10;;;;;;;25.17;52.32;102319.69;7405387;19;19933;-76
2023/08/20 11:36:38;;;;;;;7.35;1.15;;;;;;;25.23;52.32;102328.94;7404093;19;19970;-76
2023/08/20 11:39:10;;;;;;;3.85;1.17;;;;;;;25.27;50.97;102324.63;7405107;19;19918;-76